createdAt,value
2018-09-15T00:00:36.062Z,13.10
2018-09-15T00:03:04.153Z,13.20
2018-09-15T00:05:32.381Z,13.20
2018-09-15T00:08:00.405Z,13.30
2018-09-15T00:10:28.570Z,13.40
2018-09-15T00:12:56.864Z,13.40
2018-09-15T00:15:24.921Z,13.40
2018-09-15T00:17:53.974Z,13.50
2018-09-15T00:20:22.058Z,13.60
2018-09-15T00:22:50.185Z,13.60
2018-09-15T00:25:18.334Z,13.60
2018-09-15T00:27:46.448Z,13.70
2018-09-15T00:30:14.517Z,13.70
2018-09-15T00:32:42.556Z,13.80
2018-09-15T00:35:10.658Z,13.80
2018-09-15T00:37:38.717Z,13.80
2018-09-15T00:40:06.909Z,13.80
2018-09-15T00:42:35.043Z,13.90
2018-09-15T00:45:03.243Z,13.90
2018-09-15T00:47:31.324Z,13.90
2018-09-15T00:49:59.467Z,13.90
2018-09-15T00:52:27.690Z,13.90
2018-09-15T00:54:55.716Z,14.00
2018-09-15T00:57:24.127Z,13.90
2018-09-15T00:59:52.177Z,13.90
2018-09-15T01:02:20.282Z,13.90
2018-09-15T01:04:48.343Z,14.00
2018-09-15T01:07:16.392Z,13.90
2018-09-15T01:09:44.516Z,14.00
2018-09-15T01:12:12.535Z,14.00
2018-09-15T01:14:40.749Z,14.00
2018-09-15T01:17:08.808Z,14.00
2018-09-15T01:19:36.886Z,14.00
2018-09-15T01:22:04.964Z,14.00
2018-09-15T01:24:33.019Z,14.00
2018-09-15T01:27:01.112Z,14.00
2018-09-15T01:29:29.147Z,14.00
2018-09-15T01:31:57.272Z,14.00
2018-09-15T01:34:25.328Z,14.00
2018-09-15T01:36:53.368Z,13.90
2018-09-15T01:39:21.468Z,13.80
2018-09-15T01:41:49.516Z,13.80
2018-09-15T01:44:17.612Z,13.80
2018-09-15T01:46:45.767Z,13.90
2018-09-15T01:49:13.867Z,13.90
2018-09-15T01:51:41.956Z,13.90
2018-09-15T01:54:10.095Z,13.90
2018-09-15T01:56:38.183Z,13.90
2018-09-15T01:59:06.240Z,14.00
2018-09-15T02:01:34.376Z,14.00
2018-09-15T02:04:02.495Z,14.00
2018-09-15T02:06:30.507Z,14.00
2018-09-15T02:08:58.673Z,14.00
2018-09-15T02:11:26.700Z,14.00
2018-09-15T02:13:54.998Z,14.10
2018-09-15T02:16:23.163Z,14.10
2018-09-15T02:18:51.274Z,14.00
2018-09-15T02:21:19.302Z,14.00
2018-09-15T02:23:47.409Z,14.00
2018-09-15T02:26:15.456Z,13.90
2018-09-15T02:28:43.568Z,13.80
2018-09-15T02:31:11.604Z,13.70
2018-09-15T02:33:39.675Z,13.70
2018-09-15T02:36:07.760Z,13.50
2018-09-15T02:38:35.810Z,13.40
2018-09-15T02:41:04.019Z,13.30
2018-09-15T02:43:32.066Z,13.20
2018-09-15T02:46:00.174Z,13.20
2018-09-15T02:48:28.220Z,13.10
2018-09-15T02:50:56.332Z,13.10
2018-09-15T02:53:24.392Z,13.10
2018-09-15T02:55:52.431Z,13.10
2018-09-15T02:58:20.535Z,13.00
2018-09-15T03:00:48.597Z,13.00
2018-09-15T03:03:16.786Z,13.00
2018-09-15T03:05:44.910Z,12.90
2018-09-15T03:08:13.093Z,12.80
2018-09-15T03:10:41.268Z,12.70
2018-09-15T03:13:09.459Z,12.70
2018-09-15T03:15:37.568Z,12.40
2018-09-15T03:18:05.815Z,12.30
2018-09-15T03:20:33.974Z,12.10
2018-09-15T03:23:02.172Z,12.00
2018-09-15T03:25:30.268Z,12.00
2018-09-15T03:27:58.333Z,12.10
2018-09-15T03:30:26.380Z,12.40
2018-09-15T03:32:54.594Z,12.40
2018-09-15T03:35:22.620Z,12.40
2018-09-15T03:37:50.740Z,12.40
2018-09-15T03:40:18.882Z,12.40
2018-09-15T03:42:46.975Z,12.40
2018-09-15T03:45:15.050Z,12.40
2018-09-15T03:47:43.204Z,12.40
2018-09-15T03:50:11.396Z,12.30
2018-09-15T03:52:39.451Z,12.20
2018-09-15T03:55:07.546Z,12.20
2018-09-15T03:57:35.600Z,12.20
2018-09-15T04:00:03.961Z,12.30
2018-09-15T04:02:32.062Z,12.60
2018-09-15T04:05:00.228Z,12.60
2018-09-15T04:07:28.311Z,12.70
2018-09-15T04:09:56.492Z,12.60
2018-09-15T04:12:24.544Z,12.60
2018-09-15T04:14:52.631Z,12.70
2018-09-15T04:17:20.723Z,12.80
2018-09-15T04:19:48.779Z,12.90
2018-09-15T04:22:16.969Z,12.90
2018-09-15T04:24:45.101Z,13.00
2018-09-15T04:27:13.214Z,13.00
2018-09-15T04:29:47.226Z,13.00
2018-09-15T04:32:15.315Z,13.00
2018-09-15T04:34:43.554Z,13.00
2018-09-15T04:37:11.743Z,13.00
2018-09-15T04:39:39.829Z,13.10
2018-09-15T04:42:07.876Z,13.10
2018-09-15T04:44:35.932Z,13.20
2018-09-15T04:47:04.015Z,13.20
2018-09-15T04:49:32.112Z,13.20
2018-09-15T04:52:00.360Z,13.20
2018-09-15T04:54:28.464Z,13.20
2018-09-15T04:56:56.630Z,13.30
2018-09-15T04:59:24.918Z,13.30
2018-09-15T05:01:52.999Z,13.40
2018-09-15T05:04:21.044Z,13.40
2018-09-15T05:06:49.148Z,13.50
2018-09-15T05:09:17.205Z,13.50
2018-09-15T05:11:45.300Z,13.60
2018-09-15T05:14:13.478Z,13.60
2018-09-15T05:16:41.531Z,13.70
2018-09-15T05:19:09.704Z,13.70
2018-09-15T05:21:37.752Z,13.70
2018-09-15T05:24:05.932Z,13.70
2018-09-15T05:26:34.032Z,13.70
2018-09-15T05:29:02.087Z,13.80
2018-09-15T05:31:30.297Z,13.90
2018-09-15T05:33:58.352Z,13.90
2018-09-15T05:36:26.423Z,13.90
2018-09-15T05:38:54.596Z,13.90
2018-09-15T05:41:22.651Z,13.90
2018-09-15T05:43:50.745Z,13.90
2018-09-15T05:46:18.911Z,14.10
2018-09-15T05:48:47.092Z,14.30
2018-09-15T05:51:15.155Z,14.50
2018-09-15T05:53:43.342Z,14.60
2018-09-15T05:56:11.556Z,14.60
2018-09-15T05:58:39.599Z,14.60
2018-09-15T06:01:07.757Z,14.60
2018-09-15T06:03:35.845Z,14.60
2018-09-15T06:06:04.233Z,14.80
2018-09-15T06:08:32.277Z,14.80
2018-09-15T06:11:00.376Z,14.90
2018-09-15T06:13:28.527Z,15.00
2018-09-15T06:15:56.832Z,15.00
2018-09-15T06:18:24.879Z,15.00
2018-09-15T06:20:52.971Z,15.20
2018-09-15T06:23:21.176Z,15.40
2018-09-15T06:25:49.244Z,15.50
2018-09-15T06:28:17.285Z,15.60
2018-09-15T06:30:45.343Z,15.60
2018-09-15T06:33:13.452Z,15.50
2018-09-15T06:35:41.585Z,15.60
2018-09-15T06:38:09.700Z,15.60
2018-09-15T06:40:37.732Z,15.50
2018-09-15T06:43:05.827Z,15.50
2018-09-15T06:45:34.041Z,15.50
2018-09-15T06:48:02.193Z,15.60
2018-09-15T06:50:30.236Z,15.80
2018-09-15T06:52:58.589Z,15.90
2018-09-15T06:55:26.604Z,16.00
2018-09-15T06:57:54.700Z,16.00
2018-09-15T07:00:22.734Z,16.00
2018-09-15T07:02:50.863Z,16.20
2018-09-15T07:05:19.026Z,16.50
2018-09-15T07:07:47.054Z,16.80
2018-09-15T07:10:15.253Z,17.00
2018-09-15T07:12:43.310Z,17.00
2018-09-15T07:15:11.505Z,16.80
2018-09-15T07:17:39.794Z,16.70
2018-09-15T07:20:07.893Z,16.70
2018-09-15T07:22:35.928Z,16.70
2018-09-15T07:25:04.537Z,16.80
2018-09-15T07:27:32.710Z,16.90
2018-09-15T07:30:00.768Z,17.00
2018-09-15T07:32:28.826Z,17.10
2018-09-15T07:34:56.894Z,17.10
2018-09-15T07:37:25.086Z,17.30
2018-09-15T07:39:53.261Z,17.40
2018-09-15T07:42:21.328Z,17.40
2018-09-15T07:44:49.593Z,17.40
2018-09-15T07:47:17.563Z,17.40
2018-09-15T07:49:45.750Z,17.40
2018-09-15T07:52:14.036Z,17.60
2018-09-15T07:54:42.069Z,17.80
2018-09-15T07:57:10.261Z,17.90
2018-09-15T07:59:38.460Z,18.10
2018-09-15T08:02:11.154Z,18.10
2018-09-15T08:04:39.237Z,18.10
2018-09-15T08:07:07.279Z,18.20
2018-09-15T08:09:35.433Z,18.20
2018-09-15T08:12:03.529Z,18.10
2018-09-15T08:14:31.789Z,17.90
2018-09-15T08:17:00.094Z,18.00
2018-09-15T08:19:28.237Z,17.90
2018-09-15T08:21:56.359Z,17.70
2018-09-15T08:24:24.395Z,17.90
2018-09-15T08:26:52.492Z,18.20
2018-09-15T08:29:20.555Z,18.80
2018-09-15T08:31:48.867Z,19.10
2018-09-15T08:34:16.890Z,19.40
2018-09-15T08:36:44.913Z,19.50
2018-09-15T08:39:13.036Z,19.40
2018-09-15T08:41:41.137Z,19.40
2018-09-15T08:44:09.183Z,19.10
2018-09-15T08:46:37.286Z,19.20
2018-09-15T08:49:05.972Z,19.20
2018-09-15T08:51:34.036Z,19.10
2018-09-15T08:54:02.186Z,19.10
2018-09-15T08:56:30.391Z,19.20
2018-09-15T08:58:58.436Z,19.30
2018-09-15T09:01:26.536Z,19.20
2018-09-15T09:03:54.636Z,19.00
2018-09-15T09:06:22.801Z,19.40
2018-09-15T09:08:51.055Z,19.40
2018-09-15T09:11:19.108Z,19.60
2018-09-15T09:13:47.218Z,20.00
2018-09-15T09:16:15.253Z,19.80
2018-09-15T09:18:43.574Z,20.00
2018-09-15T09:21:11.612Z,20.10
2018-09-15T09:23:39.803Z,20.00
2018-09-15T09:26:07.875Z,19.60
2018-09-15T09:28:36.076Z,19.20
2018-09-15T09:31:04.145Z,19.30
2018-09-15T09:33:32.184Z,19.70
2018-09-15T09:36:00.291Z,20.20
2018-09-15T09:38:28.319Z,20.60
2018-09-15T09:40:56.773Z,20.80
2018-09-15T09:43:24.799Z,21.00
2018-09-15T09:45:52.972Z,21.00
2018-09-15T09:48:21.069Z,20.70
2018-09-15T09:50:49.143Z,20.30
2018-09-15T09:53:17.276Z,19.80
2018-09-15T09:55:45.363Z,19.60
2018-09-15T09:58:13.525Z,19.90
2018-09-15T10:00:47.319Z,20.10
2018-09-15T10:03:15.303Z,20.80
2018-09-15T10:05:43.524Z,21.50
2018-09-15T10:08:11.551Z,22.50
2018-09-15T10:10:39.752Z,23.00
2018-09-15T10:13:07.809Z,22.20
2018-09-15T10:15:35.900Z,22.10
2018-09-15T10:18:03.945Z,21.70
2018-09-15T10:20:32.048Z,21.50
2018-09-15T10:23:00.099Z,21.70
2018-09-15T10:25:28.295Z,22.00
2018-09-15T10:27:56.540Z,21.90
2018-09-15T10:30:24.744Z,22.50
2018-09-15T10:32:52.821Z,22.70
2018-09-15T10:35:21.167Z,22.90
2018-09-15T10:37:49.376Z,23.00
2018-09-15T10:40:17.422Z,22.30
2018-09-15T10:42:45.522Z,21.80
2018-09-15T10:45:13.566Z,21.60
2018-09-15T10:47:41.758Z,21.90
2018-09-15T10:50:09.918Z,22.10
2018-09-15T10:52:38.041Z,22.00
2018-09-15T10:55:06.173Z,22.20
2018-09-15T10:57:34.262Z,22.10
2018-09-15T11:00:02.320Z,21.80
2018-09-15T11:02:30.484Z,21.60
2018-09-15T11:04:58.560Z,21.20
2018-09-15T11:07:26.729Z,20.60
2018-09-15T11:09:54.728Z,20.20
2018-09-15T11:12:22.796Z,20.30
2018-09-15T11:14:50.899Z,20.60
2018-09-15T11:17:18.936Z,20.90
2018-09-15T11:19:47.043Z,21.00
2018-09-15T11:22:15.084Z,21.30
2018-09-15T11:24:43.288Z,21.70
2018-09-15T11:27:11.344Z,21.80
2018-09-15T11:29:39.515Z,21.90
2018-09-15T11:32:07.692Z,21.80
2018-09-15T11:34:35.844Z,21.90
2018-09-15T11:37:04.328Z,21.70
2018-09-15T11:39:32.407Z,21.70
2018-09-15T11:42:00.519Z,21.60
2018-09-15T11:44:28.555Z,21.40
2018-09-15T11:46:56.643Z,21.30
2018-09-15T11:49:24.712Z,21.40
2018-09-15T11:51:52.899Z,21.80
2018-09-15T11:54:21.076Z,22.30
2018-09-15T11:56:49.227Z,22.30
2018-09-15T11:59:17.315Z,22.40
2018-09-15T12:01:45.385Z,22.40
2018-09-15T12:04:13.481Z,22.30
2018-09-15T12:06:41.529Z,22.40
2018-09-15T12:09:10.015Z,22.20
2018-09-15T12:11:38.380Z,22.30
2018-09-15T12:14:06.663Z,22.10
2018-09-15T12:16:34.643Z,21.90
2018-09-15T12:19:02.832Z,21.90
2018-09-15T12:21:30.924Z,21.50
2018-09-15T12:23:58.970Z,21.10
2018-09-15T12:26:27.171Z,20.60
2018-09-15T12:28:55.811Z,20.50
2018-09-15T12:31:24.029Z,20.70
2018-09-15T12:33:52.035Z,20.70
2018-09-15T12:36:20.076Z,21.00
2018-09-15T12:38:48.209Z,21.20
2018-09-15T12:41:16.309Z,21.80
2018-09-15T12:43:44.382Z,21.70
2018-09-15T12:46:12.536Z,21.70
2018-09-15T12:48:40.749Z,21.70
2018-09-15T12:51:09.026Z,21.60
2018-09-15T12:53:37.077Z,21.60
2018-09-15T12:56:05.256Z,21.60
2018-09-15T12:58:33.348Z,21.80
2018-09-15T13:01:01.482Z,22.00
2018-09-15T13:03:29.692Z,22.50
2018-09-15T13:05:57.747Z,22.50
2018-09-15T13:08:25.948Z,22.60
2018-09-15T13:10:53.903Z,22.80
2018-09-15T13:13:21.975Z,22.90
2018-09-15T13:15:50.035Z,22.70
2018-09-15T13:18:18.124Z,22.70
2018-09-15T13:20:45.458Z,22.30
2018-09-15T13:23:12.826Z,21.90
2018-09-15T13:25:40.171Z,21.60
2018-09-15T13:28:07.600Z,22.10
2018-09-15T13:30:34.884Z,22.60
2018-09-15T13:33:02.230Z,22.70
2018-09-15T13:35:29.615Z,22.30
2018-09-15T13:37:57.010Z,22.40
2018-09-15T13:40:24.323Z,22.10
2018-09-15T13:42:51.659Z,22.40
2018-09-15T13:45:19.044Z,22.30
2018-09-15T13:47:46.368Z,22.00
2018-09-15T13:50:13.750Z,21.70
2018-09-15T13:52:41.085Z,21.30
2018-09-15T13:55:08.474Z,21.00
2018-09-15T13:57:35.790Z,21.00
2018-09-15T14:00:03.385Z,21.00
2018-09-15T14:02:34.413Z,21.30
2018-09-15T14:05:01.816Z,21.30
2018-09-15T14:07:29.139Z,21.50
2018-09-15T14:09:56.472Z,21.40
2018-09-15T14:12:23.785Z,21.30
2018-09-15T14:14:51.092Z,21.30
2018-09-15T14:17:18.484Z,21.40
2018-09-15T14:19:45.790Z,21.30
2018-09-15T14:22:13.248Z,21.10
2018-09-15T14:24:40.549Z,21.20
2018-09-15T14:27:07.882Z,21.10
2018-09-15T14:29:35.242Z,21.20
2018-09-15T14:32:02.583Z,21.20
2018-09-15T14:34:29.968Z,21.00
2018-09-15T14:36:57.291Z,21.10
2018-09-15T14:39:24.667Z,21.20
2018-09-15T14:41:52.008Z,21.20
2018-09-15T14:44:19.469Z,20.60
2018-09-15T14:46:46.711Z,20.40
2018-09-15T14:49:14.108Z,20.50
2018-09-15T14:51:41.529Z,20.40
2018-09-15T14:54:08.906Z,20.40
2018-09-15T14:56:36.235Z,20.50
2018-09-15T14:59:03.622Z,20.80
2018-09-15T15:01:30.985Z,21.00
2018-09-15T15:03:58.330Z,21.10
2018-09-15T15:06:25.658Z,21.10
2018-09-15T15:08:53.062Z,21.10
2018-09-15T15:11:20.483Z,21.00
2018-09-15T15:13:47.890Z,20.90
2018-09-15T15:16:15.289Z,20.90
2018-09-15T15:18:42.684Z,20.80
2018-09-15T15:21:10.106Z,20.70
2018-09-15T15:23:37.593Z,20.70
2018-09-15T15:26:04.943Z,20.70
2018-09-15T15:28:32.412Z,20.50
2018-09-15T15:30:59.763Z,20.30
2018-09-15T15:33:27.136Z,20.50
2018-09-15T15:35:54.465Z,20.50
2018-09-15T15:38:22.258Z,20.40
2018-09-15T15:40:49.570Z,20.40
2018-09-15T15:43:16.904Z,20.30
2018-09-15T15:45:44.202Z,20.20
2018-09-15T15:48:11.567Z,20.20
2018-09-15T15:50:38.914Z,20.10
2018-09-15T15:53:06.302Z,20.00
2018-09-15T15:55:33.749Z,20.00
2018-09-15T15:58:01.080Z,19.90
2018-09-15T16:00:28.450Z,19.70
2018-09-15T16:02:55.796Z,19.60
2018-09-15T16:05:23.979Z,19.50
2018-09-15T16:07:51.319Z,19.50
2018-09-15T16:10:18.701Z,19.50
2018-09-15T16:12:46.042Z,19.50
2018-09-15T16:15:13.502Z,19.50
2018-09-15T16:17:40.859Z,19.40
2018-09-15T16:20:08.244Z,19.30
2018-09-15T16:22:35.670Z,19.20
2018-09-15T16:25:03.347Z,19.10
2018-09-15T16:27:30.674Z,19.00
2018-09-15T16:29:58.075Z,18.90
2018-09-15T16:32:25.420Z,18.80
2018-09-15T16:34:52.751Z,18.70
2018-09-15T16:37:20.131Z,18.70
2018-09-15T16:39:47.458Z,18.50
2018-09-15T16:42:14.831Z,18.50
2018-09-15T16:44:42.165Z,18.30
2018-09-15T16:47:09.548Z,18.20
2018-09-15T16:49:37.087Z,18.00
2018-09-15T16:52:04.478Z,17.90
2018-09-15T16:54:31.795Z,17.70
2018-09-15T16:56:59.200Z,17.50
2018-09-15T16:59:26.723Z,17.30
2018-09-15T17:01:54.079Z,17.30
2018-09-15T17:04:21.467Z,17.20
2018-09-15T17:06:48.791Z,17.10
2018-09-15T17:09:16.191Z,17.10
2018-09-15T17:11:43.493Z,17.00
2018-09-15T17:14:10.898Z,16.90
2018-09-15T17:16:38.409Z,16.70
2018-09-15T17:19:06.002Z,16.50
2018-09-15T17:21:33.334Z,16.20
2018-09-15T17:24:00.796Z,15.90
2018-09-15T17:26:28.147Z,15.60
2018-09-15T17:28:55.702Z,15.40
2018-09-15T17:31:23.034Z,15.20
2018-09-15T17:33:50.331Z,15.00
2018-09-15T17:36:17.816Z,14.80
2018-09-15T17:38:45.144Z,14.70
2018-09-15T17:41:12.532Z,14.60
2018-09-15T17:43:39.851Z,14.60
2018-09-15T17:46:07.336Z,14.60
2018-09-15T17:48:34.661Z,14.50
2018-09-15T17:51:01.956Z,14.40
2018-09-15T17:53:29.270Z,14.30
2018-09-15T17:55:56.659Z,14.50
2018-09-15T17:58:24.007Z,14.60
2018-09-15T18:00:51.356Z,14.60
2018-09-15T18:03:18.774Z,14.50
2018-09-15T18:05:46.214Z,14.40
2018-09-15T18:08:13.541Z,14.30
2018-09-15T18:10:40.879Z,14.20
2018-09-15T18:13:08.256Z,14.10
2018-09-15T18:15:35.587Z,13.90
2018-09-15T18:18:02.961Z,13.80
2018-09-15T18:20:30.490Z,13.60
2018-09-15T18:22:57.767Z,13.50
2018-09-15T18:25:25.207Z,13.40
2018-09-15T18:27:52.485Z,13.30
2018-09-15T18:30:19.913Z,13.30
2018-09-15T18:32:47.187Z,13.20
2018-09-15T18:35:14.570Z,13.20
2018-09-15T18:37:41.919Z,13.10
2018-09-15T18:40:09.279Z,13.10
2018-09-15T18:42:36.610Z,13.00
2018-09-15T18:45:04.114Z,12.90
2018-09-15T18:47:31.442Z,12.90
2018-09-15T18:49:58.799Z,12.80
2018-09-15T18:52:26.165Z,12.70
2018-09-15T18:54:53.781Z,12.80
2018-09-15T18:57:21.080Z,12.90
2018-09-15T18:59:48.627Z,12.80
2018-09-15T19:02:15.999Z,12.70
2018-09-15T19:04:43.428Z,12.50
2018-09-15T19:07:11.318Z,12.40
2018-09-15T19:09:38.746Z,12.20
2018-09-15T19:12:06.149Z,12.00
2018-09-15T19:14:33.536Z,11.80
2018-09-15T19:17:00.828Z,11.80
2018-09-15T19:19:28.210Z,11.80
2018-09-15T19:21:55.542Z,11.90
2018-09-15T19:24:22.915Z,11.90
2018-09-15T19:26:50.273Z,11.90
2018-09-15T19:29:17.643Z,11.90
2018-09-15T19:31:44.958Z,11.80
2018-09-15T19:34:12.315Z,11.80
2018-09-15T19:39:10.866Z,11.70
2018-09-15T19:41:38.989Z,11.60
2018-09-15T19:44:07.290Z,11.60
2018-09-15T19:46:35.908Z,11.50
2018-09-15T19:49:04.037Z,11.30
2018-09-15T19:51:32.145Z,11.20
2018-09-15T19:54:00.216Z,11.20
2018-09-15T19:56:28.278Z,11.20
2018-09-15T19:58:56.457Z,11.20
2018-09-15T20:01:24.755Z,11.20
2018-09-15T20:03:52.803Z,11.20
2018-09-15T20:06:20.961Z,11.20
2018-09-15T20:08:49.088Z,11.20
2018-09-15T20:11:17.537Z,11.20
2018-09-15T20:13:45.684Z,11.00
2018-09-15T20:16:12.359Z,10.90
2018-09-15T20:18:39.161Z,10.80
2018-09-15T20:21:05.944Z,10.70
2018-09-15T20:23:33.996Z,10.70
2018-09-15T20:26:02.084Z,10.70
2018-09-15T20:28:30.239Z,10.70
2018-09-15T20:30:58.443Z,10.70
2018-09-15T20:33:26.489Z,10.60
2018-09-15T20:35:54.801Z,10.60
2018-09-15T20:38:22.940Z,10.50
2018-09-15T20:40:51.045Z,10.50
2018-09-15T20:43:19.084Z,10.40
2018-09-15T20:45:47.564Z,10.40
2018-09-15T20:48:15.856Z,10.40
2018-09-15T20:50:43.957Z,10.30
2018-09-15T20:53:12.107Z,10.30
2018-09-15T20:55:40.300Z,10.20
2018-09-15T20:58:08.348Z,10.40
2018-09-15T21:00:36.557Z,10.60
2018-09-15T21:03:04.626Z,10.50
2018-09-15T21:05:32.701Z,10.40
2018-09-15T21:08:00.826Z,10.40
2018-09-15T21:10:28.949Z,10.40
2018-09-15T21:12:57.092Z,10.30
2018-09-15T21:15:25.202Z,10.30
2018-09-15T21:17:53.247Z,10.20
2018-09-15T21:20:21.324Z,10.10
2018-09-15T21:22:49.403Z,10.10
2018-09-15T21:25:17.471Z,10.10
2018-09-15T21:27:45.563Z,10.20
2018-09-15T21:30:13.601Z,10.20
2018-09-15T21:32:41.710Z,10.10
2018-09-15T21:35:09.800Z,10.10
2018-09-15T21:37:37.876Z,10.10
2018-09-15T21:40:06.188Z,9.90
2018-09-15T21:42:34.525Z,9.80
2018-09-15T21:45:02.663Z,9.70
2018-09-15T21:47:31.182Z,9.50
2018-09-15T21:49:59.330Z,9.40
2018-09-15T21:52:27.483Z,9.40
2018-09-15T21:54:55.601Z,9.50
2018-09-15T21:57:23.835Z,9.60
2018-09-15T21:59:51.948Z,9.60
2018-09-15T22:02:21.948Z,9.60
2018-09-15T22:04:50.238Z,9.70
2018-09-15T22:07:18.531Z,9.80
2018-09-15T22:09:46.562Z,9.70
2018-09-15T22:12:14.719Z,9.60
2018-09-15T22:14:42.820Z,9.50
2018-09-15T22:17:11.060Z,9.60
2018-09-15T22:19:39.249Z,9.40
2018-09-15T22:22:07.433Z,9.30
2018-09-15T22:24:35.416Z,9.30
2018-09-15T22:27:03.503Z,9.30
2018-09-15T22:29:31.556Z,9.20
2018-09-15T22:31:59.771Z,9.10
2018-09-15T22:34:27.835Z,9.00
2018-09-15T22:36:56.000Z,8.90
2018-09-15T22:39:24.052Z,8.90
2018-09-15T22:41:52.152Z,8.90
2018-09-15T22:44:20.344Z,9.10
2018-09-15T22:46:48.363Z,9.30
2018-09-15T22:49:16.484Z,9.40
2018-09-15T22:51:44.724Z,9.40
2018-09-15T22:54:12.774Z,9.30
2018-09-15T22:56:40.772Z,9.30
2018-09-15T22:59:08.872Z,9.30
2018-09-15T23:01:36.944Z,9.20
2018-09-15T23:04:07.065Z,9.20
2018-09-15T23:06:35.399Z,9.00
2018-09-15T23:09:04.564Z,8.90
2018-09-15T23:11:32.653Z,9.00
2018-09-15T23:14:00.655Z,9.10
2018-09-15T23:16:28.763Z,9.20
2018-09-15T23:18:56.964Z,9.30
2018-09-15T23:21:25.110Z,9.30
2018-09-15T23:23:53.195Z,9.20
2018-09-15T23:26:21.227Z,9.10
2018-09-15T23:28:49.560Z,9.00
2018-09-15T23:31:17.691Z,8.90
2018-09-15T23:33:45.800Z,8.90
2018-09-15T23:36:13.880Z,9.00
2018-09-15T23:38:41.956Z,9.00
2018-09-15T23:41:10.326Z,8.90
2018-09-15T23:43:38.900Z,8.90
2018-09-15T23:46:07.393Z,8.90
2018-09-15T23:48:35.550Z,8.90
2018-09-15T23:51:03.896Z,8.90
2018-09-15T23:53:32.004Z,9.00
2018-09-15T23:56:00.193Z,9.00
2018-09-15T23:58:28.432Z,8.90
